Weather at Baylor Health Center At Irving Coppell Heliport

Public forecast

Using degrees Fahrenheit for public forecast. Weather courtesy of forecast.io.

Closest aviation weather report (METAR) to Baylor Health Center At Irving Coppell Heliport

Closest report is Dallas Fort Worth International Airport, 4.4 nm (8.2 km) WSW.

2024/05/29 06:53 (retrieved 1 hour ago)

KDFW 290653Z 22007KT 10SM -RA FEW040 SCT110 OVC150 23/19 A3010 RMK AO2 RAB52 SLP185 OCNL LTGIC DSNT SW CB DSNT SW MOV LTL P0000 T02280189

Closest aviation forecast (TAF) to Baylor Health Center At Irving Coppell Heliport

Closest forecast is Dallas Fort Worth International Airport, 4.4 nm (8.2 km) WSW.

2024/05/29 06:22 (retrieved 2 hours ago)

TAF KDFW 290520Z 2906/3012 36007KT P6SM VCSH SCT045 SCT110 TEMPO 2906/2907 33020KT 5SM -SHRA BKN050 FM291300 11006KT 6SM -SHRA BR VCTS OVC020CB FM291900 12008KT P6SM VCSH BKN045 FM300300 13006KT P6SM VCTS BKN035CB OVC100